NO-0040 weather

Veum Airstrip
Fredrikstad, Østfold, Norway

Public forecast

Using degrees Celsius for public forecast. Weather courtesy of forecast.io.

METAR (pilot weather report)

Closest report is Moss Airport, Rygge, 8.4 nm (15.6 km) NNW. Retrieved 2019/05/24 04:20 UTC (7 minutes ago):

ENRY 240420Z AUTO 18008KT 9000NDV -RA VV007 09/08 Q1005

TAF (pilot weather forecast)

Closest forecast is Moss Airport, Rygge, 8.4 nm (15.6 km) NNW. Retrieved 2019/05/24 00:03 UTC (4 hours ago):

TAF TAF ENRY 232300Z 2400/2424 18012KT 9999 SCT012 BKN030 TEMPO 2400/2412 4000 SHRA BKN006 SCT018CB BECMG 2410/2413 35008KT TEMPO 2412/2418 SHRA FEW020CB BKN030